Time;durP1;ratioP1;P1;durP2;ratioP2;P2;SDS_P1;SDS_P2;PMS_P1;PMS_P2;Temp;Humidity;BMP_temperature;BMP_pressure;BME280_temperature;BME280_humidity;BME280_pressure;Samples;Min_cycle;Max_cycle;Signal;HPM_P1;HPM_P2
2022/05/06 00:01:53;;;;;;;;;;;7.40;99.90;;;;;;4986315;28;20313;-60
2022/05/06 00:04:19;;;;;;;;;;;7.40;99.90;;;;;;4990212;28;19910;-59
2022/05/06 00:06:44;;;;;;;;;;;7.40;99.90;;;;;;4984521;28;19914;-60
2022/05/06 00:09:10;;;;;;;;;;;7.60;99.90;;;;;;4987896;28;20350;-60
2022/05/06 00:11:35;;;;;;;;;;;7.50;99.90;;;;;;4989759;28;20366;-59
2022/05/06 00:14:01;;;;;;;;;;;7.50;99.90;;;;;;4987580;28;19914;-60
2022/05/06 00:16:27;;;;;;;;;;;7.40;99.90;;;;;;4987860;28;19910;-60
2022/05/06 00:18:53;;;;;;;;;;;7.20;99.90;;;;;;4985018;28;19920;-60
2022/05/06 00:21:19;;;;;;;;;;;7.30;99.90;;;;;;4990259;28;19950;-60
2022/05/06 00:23:44;;;;;;;;;;;7.30;99.90;;;;;;4987112;28;19949;-60
2022/05/06 00:26:10;;;;;;;;;;;7.20;99.90;;;;;;4986585;28;20440;-60
2022/05/06 00:28:35;;;;;;;;;;;7.30;99.90;;;;;;4986717;28;19909;-60
2022/05/06 00:31:01;;;;;;;;;;;7.20;99.90;;;;;;4987179;28;19924;-60
2022/05/06 00:33:27;;;;;;;;;;;7.20;99.90;;;;;;4986968;28;19925;-59
2022/05/06 00:35:53;;;;;;;;;;;7.10;99.90;;;;;;4987654;28;20377;-60
2022/05/06 00:38:20;;;;;;;;;;;7.20;99.90;;;;;;4983563;28;19920;-59
2022/05/06 00:40:45;;;;;;;;;;;7.10;99.90;;;;;;4985268;28;19944;-60
2022/05/06 00:43:11;;;;;;;;;;;8.00;99.90;;;;;;4987854;28;19914;-59
2022/05/06 00:45:39;;;;;;;;;;;7.10;99.90;;;;;;4989531;28;19918;-60
2022/05/06 00:48:05;;;;;;;;;;;7.00;99.90;;;;;;4988978;28;19910;-60
2022/05/06 00:50:32;;;;;;;;;;;7.10;99.90;;;;;;4989170;28;19925;-60
2022/05/06 00:52:57;;;;;;;;;;;7.10;99.90;;;;;;4984765;28;20400;-59
2022/05/06 00:55:23;;;;;;;;;;;7.00;99.90;;;;;;4989551;28;19952;-60
2022/05/06 00:57:48;;;;;;;;;;;7.10;99.90;;;;;;4989348;28;19999;-60
2022/05/06 01:00:20;;;;;;;;;;;7.00;99.90;;;;;;4985891;28;19910;-59
2022/05/06 01:02:46;;;;;;;;;;;7.00;99.90;;;;;;4991788;28;19916;-60
2022/05/06 01:05:12;;;;;;;;;;;6.90;99.90;;;;;;4988503;28;20460;-59
2022/05/06 01:07:38;;;;;;;;;;;6.90;99.90;;;;;;4989507;28;20286;-60
2022/05/06 01:10:04;;;;;;;;;;;7.00;99.90;;;;;;4985211;28;19916;-59
2022/05/06 01:12:29;;;;;;;;;;;6.80;99.90;;;;;;4988734;28;19913;-60
2022/05/06 01:14:55;;;;;;;;;;;7.00;99.90;;;;;;4987188;28;19909;-61
2022/05/06 01:17:22;;;;;;;;;;;6.90;99.90;;;;;;4988546;28;20006;-60
2022/05/06 01:19:47;;;;;;;;;;;7.00;99.90;;;;;;4998220;28;19909;-59
2022/05/06 01:22:14;;;;;;;;;;;6.80;99.90;;;;;;4988761;28;19910;-60
2022/05/06 01:24:39;;;;;;;;;;;6.80;99.90;;;;;;4988308;28;19910;-59
2022/05/06 01:27:16;;;;;;;;;;;6.70;99.90;;;;;;4984116;28;20423;-60
2022/05/06 01:29:43;;;;;;;;;;;6.60;99.90;;;;;;4983459;28;20049;-59
2022/05/06 01:32:09;;;;;;;;;;;6.70;99.90;;;;;;4987967;28;19926;-60
2022/05/06 01:34:37;;;;;;;;;;;6.50;99.90;;;;;;4985609;28;19913;-59
2022/05/06 01:37:04;;;;;;;;;;;6.50;99.90;;;;;;4987598;28;20374;-59
2022/05/06 01:39:31;;;;;;;;;;;6.30;99.90;;;;;;4988153;28;19910;-60
2022/05/06 01:41:58;;;;;;;;;;;6.30;99.90;;;;;;4989628;28;19921;-60
2022/05/06 01:44:25;;;;;;;;;;;6.30;99.90;;;;;;4990202;28;19912;-59
2022/05/06 01:46:51;;;;;;;;;;;6.40;99.90;;;;;;4986511;28;19909;-60
2022/05/06 01:49:16;;;;;;;;;;;6.40;99.90;;;;;;4987641;28;20157;-59
2022/05/06 01:51:42;;;;;;;;;;;6.40;99.90;;;;;;4988470;28;20490;-60
2022/05/06 01:54:09;;;;;;;;;;;6.40;99.90;;;;;;4986868;28;19909;-59
2022/05/06 01:56:34;;;;;;;;;;;6.30;99.90;;;;;;4997753;28;20091;-59
2022/05/06 01:59:01;;;;;;;;;;;6.20;99.90;;;;;;4984774;28;19914;-60
2022/05/06 02:01:26;;;;;;;;;;;6.20;99.90;;;;;;4987039;28;20204;-59
2022/05/06 02:06:36;;;;;;;;;;;6.20;99.90;;;;;;4984433;28;20001;-59
2022/05/06 02:09:02;;;;;;;;;;;6.20;99.90;;;;;;4986487;28;19994;-60
2022/05/06 02:11:27;;;;;;;;;;;6.10;99.90;;;;;;4987031;28;19913;-60
2022/05/06 02:13:53;;;;;;;;;;;6.10;99.90;;;;;;4986462;28;19941;-60
2022/05/06 02:16:19;;;;;;;;;;;6.10;99.90;;;;;;4987092;28;19945;-61
2022/05/06 02:18:45;;;;;;;;;;;6.20;99.90;;;;;;4986407;28;19910;-60
2022/05/06 02:21:10;;;;;;;;;;;6.20;99.90;;;;;;4987386;28;19965;-59
2022/05/06 02:23:37;;;;;;;;;;;6.20;99.90;;;;;;4989584;28;19961;-60
2022/05/06 02:26:02;;;;;;;;;;;6.20;99.90;;;;;;4989249;28;19976;-59
2022/05/06 02:28:28;;;;;;;;;;;6.30;99.90;;;;;;4986878;28;20385;-59
2022/05/06 02:33:37;;;;;;;;;;;6.10;99.90;;;;;;4984956;28;19968;-59
2022/05/06 02:36:03;;;;;;;;;;;6.00;99.90;;;;;;4994655;28;19909;-59
2022/05/06 02:38:29;;;;;;;;;;;5.90;99.90;;;;;;4987072;28;19910;-59
2022/05/06 02:40:55;;;;;;;;;;;5.90;99.90;;;;;;4981994;28;19917;-59
2022/05/06 02:43:21;;;;;;;;;;;5.90;99.90;;;;;;4985795;28;19909;-60
2022/05/06 02:45:46;;;;;;;;;;;5.90;99.90;;;;;;4985825;28;20321;-60
2022/05/06 02:48:12;;;;;;;;;;;5.80;99.90;;;;;;4986206;28;20024;-59
2022/05/06 02:50:38;;;;;;;;;;;5.90;99.90;;;;;;4982394;28;20425;-60
2022/05/06 02:53:04;;;;;;;;;;;5.90;99.90;;;;;;4985794;28;20366;-61
2022/05/06 02:55:30;;;;;;;;;;;5.90;99.90;;;;;;4986461;28;19932;-60
2022/05/06 02:57:55;;;;;;;;;;;6.00;99.90;;;;;;4986032;28;19917;-60
2022/05/06 03:00:21;;;;;;;;;;;6.30;99.90;;;;;;4984644;28;19933;-59
2022/05/06 03:02:47;;;;;;;;;;;6.20;99.90;;;;;;4986968;28;19933;-60
2022/05/06 03:05:12;;;;;;;;;;;6.20;99.90;;;;;;4988517;28;19916;-60
2022/05/06 03:07:38;;;;;;;;;;;6.20;99.90;;;;;;4987829;28;20366;-59
2022/05/06 03:10:04;;;;;;;;;;;6.20;99.90;;;;;;4985242;28;20079;-59
2022/05/06 03:12:31;;;;;;;;;;;6.20;99.90;;;;;;4988077;28;20642;-59
2022/05/06 03:14:56;;;;;;;;;;;6.10;99.90;;;;;;4986754;28;19947;-60
2022/05/06 03:17:22;;;;;;;;;;;6.20;99.90;;;;;;4981069;28;19913;-59
2022/05/06 03:19:48;;;;;;;;;;;6.20;99.90;;;;;;4985828;28;19909;-60
2022/05/06 03:22:15;;;;;;;;;;;6.30;99.90;;;;;;4985636;28;19951;-59
2022/05/06 03:24:41;;;;;;;;;;;6.10;99.90;;;;;;4984063;28;19913;-60
2022/05/06 03:27:59;;;;;;;;;;;6.00;99.90;;;;;;4985253;28;20031;-60
2022/05/06 03:29:52;;;;;;;;;;;5.90;99.90;;;;;;4981758;28;19961;-60
2022/05/06 03:32:18;;;;;;;;;;;5.80;99.90;;;;;;4984363;28;20386;-59
2022/05/06 03:34:43;;;;;;;;;;;5.90;99.90;;;;;;4985766;28;20456;-60
2022/05/06 03:37:08;;;;;;;;;;;5.80;99.90;;;;;;4992446;28;19910;-60
2022/05/06 03:39:34;;;;;;;;;;;5.80;99.90;;;;;;4985385;28;20286;-60
2022/05/06 03:41:59;;;;;;;;;;;5.70;99.90;;;;;;4995101;28;20165;-59
2022/05/06 03:44:25;;;;;;;;;;;5.80;99.90;;;;;;4988204;28;20326;-59
2022/05/06 03:46:50;;;;;;;;;;;5.80;99.90;;;;;;4991542;28;19916;-60
2022/05/06 03:49:16;;;;;;;;;;;5.90;99.90;;;;;;4985546;28;20449;-59
2022/05/06 03:51:44;;;;;;;;;;;5.80;99.90;;;;;;4984766;28;19917;-59
2022/05/06 03:54:10;;;;;;;;;;;5.70;99.90;;;;;;4986817;28;19910;-59
2022/05/06 03:56:35;;;;;;;;;;;5.70;99.90;;;;;;4980942;28;20008;-59
2022/05/06 03:59:01;;;;;;;;;;;5.50;99.90;;;;;;4982824;28;19957;-59
2022/05/06 04:01:26;;;;;;;;;;;5.50;99.90;;;;;;4983287;28;19913;-58
2022/05/06 04:03:52;;;;;;;;;;;5.40;99.90;;;;;;4984375;28;19917;-59
2022/05/06 04:06:17;;;;;;;;;;;5.40;99.90;;;;;;4985053;28;19910;-59
2022/05/06 04:08:43;;;;;;;;;;;5.40;99.90;;;;;;4981106;28;20309;-59
2022/05/06 04:11:12;;;;;;;;;;;5.30;99.90;;;;;;4980579;28;20432;-60
2022/05/06 04:13:38;;;;;;;;;;;5.40;99.90;;;;;;4983615;28;19960;-59
2022/05/06 04:16:04;;;;;;;;;;;5.40;99.90;;;;;;4980805;28;20007;-59
2022/05/06 04:18:30;;;;;;;;;;;5.50;99.90;;;;;;4981501;28;19917;-59
2022/05/06 04:23:40;;;;;;;;;;;5.50;99.90;;;;;;4977808;28;20329;-59
2022/05/06 04:26:06;;;;;;;;;;;5.40;99.90;;;;;;4986447;28;19913;-59
2022/05/06 04:28:32;;;;;;;;;;;5.50;99.90;;;;;;4982992;28;20457;-59
2022/05/06 04:30:58;;;;;;;;;;;5.60;99.90;;;;;;4979126;28;19952;-59
2022/05/06 04:33:27;;;;;;;;;;;5.70;99.90;;;;;;4983139;28;19921;-58
2022/05/06 04:35:53;;;;;;;;;;;5.80;99.90;;;;;;4981617;28;20289;-59
2022/05/06 04:38:19;;;;;;;;;;;5.90;99.90;;;;;;4980845;28;19913;-59
2022/05/06 04:40:44;;;;;;;;;;;5.90;99.90;;;;;;4977538;28;20353;-59
2022/05/06 04:43:10;;;;;;;;;;;6.00;99.90;;;;;;4977890;28;19961;-59
2022/05/06 04:45:39;;;;;;;;;;;6.10;99.90;;;;;;4985198;28;20709;-59
2022/05/06 04:48:06;;;;;;;;;;;6.10;99.90;;;;;;4982866;28;19910;-59
2022/05/06 04:50:32;;;;;;;;;;;6.10;99.90;;;;;;4984395;28;19996;-59
2022/05/06 04:52:58;;;;;;;;;;;6.20;99.90;;;;;;4979418;28;20374;-59
2022/05/06 04:55:23;;;;;;;;;;;6.30;99.90;;;;;;4981005;28;19920;-59
2022/05/06 04:57:49;;;;;;;;;;;6.40;99.90;;;;;;4980739;28;19914;-59
2022/05/06 05:00:15;;;;;;;;;;;6.50;99.90;;;;;;4980331;28;19944;-59
2022/05/06 05:02:40;;;;;;;;;;;6.60;99.90;;;;;;4980427;28;20634;-59
2022/05/06 05:05:06;;;;;;;;;;;6.60;99.90;;;;;;4983516;28;20007;-59
2022/05/06 05:07:32;;;;;;;;;;;6.70;99.90;;;;;;4984435;28;20596;-59
2022/05/06 05:09:57;;;;;;;;;;;6.80;99.90;;;;;;4994527;28;20144;-59
2022/05/06 05:12:24;;;;;;;;;;;6.90;99.90;;;;;;4982524;28;19917;-59
2022/05/06 05:14:50;;;;;;;;;;;7.10;99.90;;;;;;4981837;28;19913;-59
2022/05/06 05:17:16;;;;;;;;;;;7.30;99.90;;;;;;4980141;28;19914;-60
2022/05/06 05:19:42;;;;;;;;;;;7.30;99.90;;;;;;4984263;28;19917;-59
2022/05/06 05:22:07;;;;;;;;;;;7.50;99.90;;;;;;4992815;28;19914;-59
2022/05/06 05:24:33;;;;;;;;;;;7.60;99.90;;;;;;4982899;28;19995;-59
2022/05/06 05:26:58;;;;;;;;;;;7.70;99.90;;;;;;4986447;28;20291;-59
2022/05/06 05:29:24;;;;;;;;;;;7.90;99.90;;;;;;4986190;28;19913;-59
2022/05/06 05:31:50;;;;;;;;;;;8.00;99.90;;;;;;4982781;28;19926;-59
2022/05/06 05:34:15;;;;;;;;;;;8.10;99.90;;;;;;4984860;28;19913;-59
2022/05/06 05:36:41;;;;;;;;;;;8.30;99.90;;;;;;4985941;28;19914;-60
2022/05/06 05:39:06;;;;;;;;;;;8.40;99.90;;;;;;4985958;28;19921;-59
2022/05/06 05:41:33;;;;;;;;;;;8.60;99.90;;;;;;4983250;28;19936;-59
2022/05/06 05:49:30;;;;;;;;;;;9.00;99.90;;;;;;4989640;28;20285;-59
2022/05/06 05:51:55;;;;;;;;;;;9.10;99.90;;;;;;4982496;28;20215;-59
2022/05/06 05:54:21;;;;;;;;;;;9.20;99.90;;;;;;4983664;28;20379;-59
2022/05/06 05:56:46;;;;;;;;;;;9.40;99.90;;;;;;4985441;28;19936;-59
2022/05/06 05:59:12;;;;;;;;;;;9.50;99.90;;;;;;4981802;28;20141;-59
2022/05/06 06:01:37;;;;;;;;;;;9.70;99.90;;;;;;4984388;28;19973;-59
2022/05/06 06:04:03;;;;;;;;;;;9.90;99.90;;;;;;4985169;28;20356;-59
2022/05/06 06:06:28;;;;;;;;;;;10.20;99.90;;;;;;4984721;28;19910;-59
2022/05/06 06:08:54;;;;;;;;;;;10.30;99.90;;;;;;4984909;28;19917;-59
2022/05/06 06:11:19;;;;;;;;;;;10.40;99.90;;;;;;4980703;28;20008;-59
2022/05/06 06:13:45;;;;;;;;;;;10.60;99.90;;;;;;4980451;28;19984;-59
2022/05/06 06:16:10;;;;;;;;;;;10.80;99.90;;;;;;4986681;28;19944;-59
2022/05/06 06:18:36;;;;;;;;;;;10.90;99.90;;;;;;4984172;28;19916;-59
2022/05/06 06:21:01;;;;;;;;;;;11.00;99.90;;;;;;4985819;28;19953;-59
2022/05/06 06:23:29;;;;;;;;;;;11.00;99.90;;;;;;4986105;28;20337;-59
2022/05/06 06:25:55;;;;;;;;;;;11.10;99.90;;;;;;4985856;28;19917;-59
2022/05/06 06:28:21;;;;;;;;;;;11.30;99.90;;;;;;4989551;28;19909;-59
2022/05/06 06:30:46;;;;;;;;;;;11.40;99.90;;;;;;4987059;28;20259;-59
2022/05/06 06:33:12;;;;;;;;;;;11.60;99.90;;;;;;4985110;28;19937;-59
2022/05/06 06:35:37;;;;;;;;;;;11.70;99.90;;;;;;4988083;28;20077;-59
2022/05/06 06:38:03;;;;;;;;;;;11.90;99.90;;;;;;4985780;28;19910;-59
2022/05/06 06:40:28;;;;;;;;;;;12.20;99.90;;;;;;4987755;28;19909;-60
2022/05/06 06:42:54;;;;;;;;;;;12.40;99.90;;;;;;4986772;28;19909;-59
2022/05/06 06:45:19;;;;;;;;;;;12.50;99.90;;;;;;4986154;28;20053;-59
2022/05/06 06:47:45;;;;;;;;;;;12.60;99.90;;;;;;4987444;28;20259;-59
2022/05/06 06:50:10;;;;;;;;;;;12.80;99.90;;;;;;4984742;28;19909;-59
2022/05/06 06:52:36;;;;;;;;;;;12.90;99.90;;;;;;4985446;28;20644;-59
2022/05/06 06:55:02;;;;;;;;;;;13.10;99.90;;;;;;4983448;28;20009;-59
2022/05/06 06:57:31;;;;;;;;;;;13.10;99.90;;;;;;4987128;28;19909;-59
2022/05/06 06:59:57;;;;;;;;;;;13.20;99.90;;;;;;4982864;28;20465;-59
2022/05/06 07:02:22;;;;;;;;;;;13.30;99.90;;;;;;4987264;28;19924;-59
2022/05/06 07:04:48;;;;;;;;;;;13.50;99.90;;;;;;4985761;28;19921;-59
2022/05/06 07:12:42;;;;;;;;;;;14.00;99.90;;;;;;4984367;28;20568;-59
2022/05/06 07:15:08;;;;;;;;;;;14.20;99.90;;;;;;4986612;28;19921;-59
2022/05/06 07:17:34;;;;;;;;;;;14.30;99.90;;;;;;4988251;28;19949;-59
2022/05/06 07:19:59;;;;;;;;;;;14.30;99.90;;;;;;4986170;28;19957;-59
2022/05/06 07:22:25;;;;;;;;;;;14.40;99.90;;;;;;4987582;28;20554;-59
2022/05/06 07:24:50;;;;;;;;;;;14.50;99.90;;;;;;4984067;28;19972;-59
2022/05/06 07:27:18;;;;;;;;;;;14.70;99.90;;;;;;4985375;28;20283;-60
2022/05/06 07:29:43;;;;;;;;;;;14.80;99.90;;;;;;4983525;28;19923;-59
2022/05/06 07:32:09;;;;;;;;;;;14.80;99.90;;;;;;4986024;28;19926;-59
2022/05/06 07:34:36;;;;;;;;;;;14.90;99.90;;;;;;4984215;28;19910;-59
2022/05/06 07:37:01;;;;;;;;;;;15.00;99.90;;;;;;4985227;28;20156;-59
2022/05/06 07:39:27;;;;;;;;;;;15.20;99.90;;;;;;4985758;28;20431;-59
2022/05/06 07:41:52;;;;;;;;;;;15.30;99.90;;;;;;4984554;28;19921;-59
2022/05/06 07:44:18;;;;;;;;;;;15.50;99.90;;;;;;4984158;28;19939;-59
2022/05/06 07:46:43;;;;;;;;;;;15.40;99.90;;;;;;4983427;28;20040;-59
2022/05/06 07:49:09;;;;;;;;;;;15.30;99.90;;;;;;4988188;28;19952;-59
2022/05/06 07:51:34;;;;;;;;;;;15.50;99.90;;;;;;4987507;28;19914;-59
2022/05/06 07:54:00;;;;;;;;;;;15.80;99.90;;;;;;4982865;28;19959;-60
2022/05/06 07:56:28;;;;;;;;;;;15.60;99.90;;;;;;4990399;28;19909;-59
2022/05/06 07:58:54;;;;;;;;;;;15.60;99.90;;;;;;4984387;28;19949;-59
2022/05/06 08:04:32;;;;;;;;;;;15.80;99.90;;;;;;4986336;28;20456;-59
2022/05/06 08:06:50;;;;;;;;;;;15.90;99.90;;;;;;4981864;28;19921;-59
2022/05/06 08:09:15;;;;;;;;;;;16.20;99.90;;;;;;4986598;28;19914;-60
2022/05/06 08:11:41;;;;;;;;;;;16.60;99.90;;;;;;4986319;28;20656;-59
2022/05/06 08:14:07;;;;;;;;;;;17.40;99.80;;;;;;5011449;28;20017;-59
2022/05/06 08:16:32;;;;;;;;;;;18.30;94.70;;;;;;4984599;28;20678;-59
2022/05/06 08:18:58;;;;;;;;;;;18.30;94.90;;;;;;4982690;28;20533;-59
2022/05/06 08:21:23;;;;;;;;;;;18.60;93.20;;;;;;4987866;28;19920;-59
2022/05/06 08:23:49;;;;;;;;;;;19.30;91.50;;;;;;4981048;28;20243;-59
2022/05/06 08:26:14;;;;;;;;;;;19.70;90.00;;;;;;4976877;28;19961;-60
2022/05/06 08:28:40;;;;;;;;;;;20.10;87.70;;;;;;4982668;28;19909;-59
2022/05/06 08:31:05;;;;;;;;;;;20.50;86.60;;;;;;4982468;28;20360;-60
2022/05/06 08:33:31;;;;;;;;;;;21.30;84.70;;;;;;4983169;28;19949;-59
2022/05/06 08:35:56;;;;;;;;;;;20.80;82.80;;;;;;4985393;28;19913;-60
2022/05/06 08:38:22;;;;;;;;;;;21.30;81.80;;;;;;4982888;28;20000;-59
2022/05/06 08:40:49;;;;;;;;;;;21.10;82.40;;;;;;4981368;28;19914;-60
2022/05/06 08:43:14;;;;;;;;;;;21.70;79.70;;;;;;4980565;28;19917;-60
2022/05/06 08:51:10;;;;;;;;;;;20.90;78.30;;;;;;4983470;28;19984;-60
2022/05/06 08:53:37;;;;;;;;;;;20.70;80.70;;;;;;4987553;28;19917;-59
2022/05/06 08:56:03;;;;;;;;;;;21.00;79.80;;;;;;4981267;28;19918;-59
2022/05/06 08:58:31;;;;;;;;;;;21.00;81.00;;;;;;4985056;28;20357;-60
2022/05/06 09:01:00;;;;;;;;;;;21.30;80.40;;;;;;4984696;28;19921;-59
2022/05/06 09:03:25;;;;;;;;;;;21.60;80.80;;;;;;4987847;28;19918;-60
2022/05/06 09:05:56;;;;;;;;;;;21.50;79.20;;;;;;4986850;28;19913;-59
2022/05/06 09:08:22;;;;;;;;;;;22.40;80.10;;;;;;4991046;28;19917;-60
2022/05/06 09:11:00;;;;;;;;;;;22.50;75.90;;;;;;4991624;28;19929;-60
2022/05/06 09:13:26;;;;;;;;;;;22.90;78.60;;;;;;4989174;28;19914;-60
2022/05/06 09:19:15;;;;;;;;;;;24.30;72.80;;;;;;4989614;28;19921;-60
2022/05/06 09:21:58;;;;;;;;;;;23.80;72.40;;;;;;4983642;28;20303;-60
2022/05/06 09:24:24;;;;;;;;;;;23.90;70.30;;;;;;4988502;28;20651;-60
2022/05/06 09:26:59;;;;;;;;;;;22.30;71.80;;;;;;4987902;28;19913;-60
2022/05/06 09:29:31;;;;;;;;;;;23.60;72.20;;;;;;4984617;28;19913;-60
2022/05/06 09:32:16;;;;;;;;;;;23.20;71.80;;;;;;4987246;28;19933;-60
2022/05/06 09:34:42;;;;;;;;;;;23.50;71.70;;;;;;4987042;28;19944;-60
2022/05/06 09:37:08;;;;;;;;;;;25.20;69.40;;;;;;4987179;28;20351;-60
2022/05/06 09:39:33;;;;;;;;;;;25.00;70.60;;;;;;4987278;28;19914;-61
2022/05/06 09:42:04;;;;;;;;;;;25.30;67.20;;;;;;5019342;28;19918;-60
2022/05/06 09:44:29;;;;;;;;;;;25.60;67.00;;;;;;4984557;28;19913;-60
2022/05/06 09:47:06;;;;;;;;;;;25.20;67.80;;;;;;4987838;28;19913;-60
2022/05/06 09:49:41;;;;;;;;;;;25.40;66.20;;;;;;4989952;28;19979;-60
2022/05/06 09:52:10;;;;;;;;;;;24.70;68.70;;;;;;4989200;28;19916;-60
2022/05/06 09:54:35;;;;;;;;;;;24.90;67.90;;;;;;4990059;28;20401;-60
2022/05/06 09:57:02;;;;;;;;;;;25.10;67.40;;;;;;4982797;28;19957;-60
2022/05/06 09:59:28;;;;;;;;;;;26.20;66.30;;;;;;4987220;28;19914;-60
2022/05/06 10:01:54;;;;;;;;;;;26.50;65.60;;;;;;4987394;28;20100;-60
2022/05/06 10:04:19;;;;;;;;;;;25.80;64.30;;;;;;4987379;28;19909;-60
2022/05/06 10:06:45;;;;;;;;;;;25.70;65.50;;;;;;4987170;28;19914;-60
2022/05/06 10:09:11;;;;;;;;;;;24.40;67.40;;;;;;4983689;28;19921;-60
2022/05/06 10:11:38;;;;;;;;;;;24.50;66.50;;;;;;4982412;28;20438;-60
2022/05/06 10:14:05;;;;;;;;;;;24.20;67.50;;;;;;4983821;28;20782;-60
2022/05/06 10:16:35;;;;;;;;;;;23.90;69.80;;;;;;4986917;28;19913;-60
2022/05/06 10:19:00;;;;;;;;;;;23.90;67.80;;;;;;4987482;28;20378;-60
2022/05/06 10:21:45;;;;;;;;;;;23.10;70.70;;;;;;4987098;28;19964;-60
2022/05/06 10:24:15;;;;;;;;;;;23.80;69.80;;;;;;4981750;28;20279;-60
2022/05/06 10:26:47;;;;;;;;;;;24.20;68.80;;;;;;4986994;28;20021;-60
2022/05/06 10:32:27;;;;;;;;;;;25.00;66.10;;;;;;4985968;28;19975;-59
2022/05/06 10:34:55;;;;;;;;;;;24.60;67.50;;;;;;4986320;28;20060;-59
2022/05/06 10:37:21;;;;;;;;;;;23.40;69.00;;;;;;4986263;28;19916;-60
2022/05/06 10:39:47;;;;;;;;;;;23.40;68.90;;;;;;4987923;28;19920;-60
2022/05/06 10:42:15;;;;;;;;;;;23.40;69.10;;;;;;4985868;28;19913;-59
2022/05/06 10:44:48;;;;;;;;;;;23.50;69.30;;;;;;4986227;28;19975;-59
2022/05/06 10:47:18;;;;;;;;;;;23.00;68.70;;;;;;4983251;28;20012;-60
2022/05/06 10:49:46;;;;;;;;;;;22.60;69.70;;;;;;4986071;28;20333;-59
2022/05/06 10:52:33;;;;;;;;;;;22.80;69.10;;;;;;4986511;28;19913;-59
2022/05/06 10:55:03;;;;;;;;;;;22.50;71.20;;;;;;4985350;28;19917;-59
2022/05/06 10:57:32;;;;;;;;;;;21.20;72.80;;;;;;4985222;28;20329;-59
2022/05/06 11:00:00;;;;;;;;;;;20.30;76.20;;;;;;4981875;28;20025;-60
2022/05/06 11:02:33;;;;;;;;;;;20.30;76.10;;;;;;4984874;28;20037;-59
2022/05/06 11:04:59;;;;;;;;;;;20.20;76.20;;;;;;4985896;28;19913;-59
2022/05/06 11:07:25;;;;;;;;;;;20.10;76.50;;;;;;4985580;28;19909;-60
2022/05/06 11:09:53;;;;;;;;;;;20.90;74.90;;;;;;4987825;28;20013;-60
2022/05/06 11:12:28;;;;;;;;;;;20.70;75.10;;;;;;4987015;28;19917;-59
2022/05/06 11:14:54;;;;;;;;;;;21.00;72.80;;;;;;4985717;28;19914;-59
2022/05/06 11:17:20;;;;;;;;;;;20.70;74.40;;;;;;4983204;28;19914;-59
2022/05/06 11:19:46;;;;;;;;;;;21.90;72.50;;;;;;4982922;28;20647;-59
2022/05/06 11:22:11;;;;;;;;;;;23.20;71.30;;;;;;4996793;28;19918;-59
2022/05/06 11:24:37;;;;;;;;;;;24.30;70.70;;;;;;5015982;28;19914;-59
2022/05/06 11:27:15;;;;;;;;;;;26.40;65.60;;;;;;4986438;28;19977;-60
2022/05/06 11:29:57;;;;;;;;;;;27.40;61.90;;;;;;4984212;28;20587;-60
2022/05/06 11:32:23;;;;;;;;;;;27.10;62.50;;;;;;4981193;28;19937;-60
2022/05/06 11:35:01;;;;;;;;;;;28.60;59.40;;;;;;4985793;28;19913;-60
2022/05/06 11:37:30;;;;;;;;;;;28.80;58.70;;;;;;4978939;28;19914;-60
2022/05/06 11:42:40;;;;;;;;;;;28.80;58.10;;;;;;4982264;28;19987;-60
2022/05/06 11:48:03;;;;;;;;;;;27.40;61.10;;;;;;4981498;28;19938;-60
2022/05/06 11:50:28;;;;;;;;;;;26.90;61.70;;;;;;4985687;28;19917;-60
2022/05/06 11:52:56;;;;;;;;;;;25.80;62.60;;;;;;5017638;28;19914;-60
2022/05/06 11:55:22;;;;;;;;;;;25.20;63.80;;;;;;4984689;28;20286;-60
2022/05/06 11:57:48;;;;;;;;;;;24.20;65.60;;;;;;4985586;28;19914;-60
2022/05/06 12:00:14;;;;;;;;;;;23.80;66.30;;;;;;4981320;28;19932;-59
2022/05/06 12:02:49;;;;;;;;;;;23.70;65.80;;;;;;4979511;28;19953;-60
2022/05/06 12:05:15;;;;;;;;;;;22.00;69.50;;;;;;4983579;28;19914;-60
2022/05/06 12:07:45;;;;;;;;;;;22.40;70.40;;;;;;4982099;28;19913;-60
2022/05/06 12:10:22;;;;;;;;;;;22.00;70.90;;;;;;4977496;28;19914;-59
2022/05/06 12:13:10;;;;;;;;;;;22.40;68.80;;;;;;4985769;28;20338;-59
2022/05/06 12:15:39;;;;;;;;;;;23.00;69.30;;;;;;4983344;28;19980;-60
2022/05/06 12:18:09;;;;;;;;;;;23.70;66.80;;;;;;4986380;28;19956;-60
2022/05/06 12:20:41;;;;;;;;;;;23.20;66.60;;;;;;4984194;28;20508;-60
2022/05/06 12:23:07;;;;;;;;;;;22.60;69.00;;;;;;4985148;28;19913;-59
2022/05/06 12:25:36;;;;;;;;;;;23.20;70.30;;;;;;4985248;28;19914;-60
2022/05/06 12:28:02;;;;;;;;;;;24.30;68.60;;;;;;4986056;28;20008;-60
2022/05/06 12:30:29;;;;;;;;;;;25.50;66.50;;;;;;4981266;28;19986;-60
2022/05/06 12:33:04;;;;;;;;;;;26.10;64.10;;;;;;4983701;28;19926;-60
2022/05/06 12:35:30;;;;;;;;;;;26.70;63.70;;;;;;4986081;28;19913;-60
2022/05/06 12:38:00;;;;;;;;;;;27.60;61.40;;;;;;4987822;28;19984;-60
2022/05/06 12:40:32;;;;;;;;;;;27.70;61.30;;;;;;4987980;28;20294;-60
2022/05/06 12:43:10;;;;;;;;;;;28.40;62.20;;;;;;4984903;28;19922;-60
2022/05/06 12:45:36;;;;;;;;;;;28.10;60.60;;;;;;4988433;28;19910;-60
2022/05/06 12:50:46;;;;;;;;;;;27.60;59.90;;;;;;4989706;28;19929;-60
2022/05/06 12:53:12;;;;;;;;;;;28.20;58.10;;;;;;4988217;28;19921;-60
2022/05/06 12:55:37;;;;;;;;;;;28.80;58.80;;;;;;4988578;28;19941;-60
2022/05/06 12:58:03;;;;;;;;;;;29.70;59.50;;;;;;4989433;28;19936;-60
2022/05/06 13:00:29;;;;;;;;;;;29.10;59.60;;;;;;4986213;28;20273;-60
2022/05/06 13:02:55;;;;;;;;;;;28.40;62.00;;;;;;4985305;28;19914;-60
2022/05/06 13:05:21;;;;;;;;;;;28.70;61.60;;;;;;4988050;28;19915;-60
2022/05/06 13:07:46;;;;;;;;;;;29.00;59.90;;;;;;4988193;28;19910;-60
2022/05/06 13:10:12;;;;;;;;;;;29.30;60.10;;;;;;4987538;28;19913;-60
2022/05/06 13:12:38;;;;;;;;;;;27.80;61.30;;;;;;4988199;28;19914;-60
2022/05/06 13:15:03;;;;;;;;;;;27.10;62.70;;;;;;4988100;28;19918;-60
2022/05/06 13:17:29;;;;;;;;;;;27.70;61.70;;;;;;4987278;28;20374;-60
2022/05/06 13:19:54;;;;;;;;;;;29.00;61.00;;;;;;4975124;28;19910;-60
2022/05/06 13:22:21;;;;;;;;;;;29.40;60.30;;;;;;5018576;28;19921;-60
2022/05/06 13:24:47;;;;;;;;;;;29.40;58.60;;;;;;4987547;28;20361;-60
2022/05/06 13:27:13;;;;;;;;;;;30.00;58.20;;;;;;4987755;28;19909;-60
2022/05/06 13:29:39;;;;;;;;;;;30.10;56.20;;;;;;4988572;28;19917;-60
2022/05/06 13:32:04;;;;;;;;;;;29.90;55.90;;;;;;4990024;28;20366;-60
2022/05/06 13:34:30;;;;;;;;;;;29.50;57.50;;;;;;4986458;28;20282;-61
2022/05/06 13:36:56;;;;;;;;;;;29.00;56.90;;;;;;4987962;28;20076;-61
2022/05/06 13:39:22;;;;;;;;;;;29.60;56.70;;;;;;4983724;28;19925;-60
2022/05/06 13:41:47;;;;;;;;;;;28.10;58.10;;;;;;4988127;28;19910;-60
2022/05/06 13:44:13;;;;;;;;;;;26.70;60.50;;;;;;4988131;28;19916;-60
2022/05/06 13:46:38;;;;;;;;;;;26.60;61.60;;;;;;4986569;28;19906;-60
2022/05/06 13:49:04;;;;;;;;;;;26.10;60.20;;;;;;4987660;28;19917;-60
2022/05/06 13:51:29;;;;;;;;;;;25.20;62.50;;;;;;4994253;28;19914;-60
2022/05/06 13:53:56;;;;;;;;;;;26.40;61.80;;;;;;5017294;28;20005;-60
2022/05/06 13:59:06;;;;;;;;;;;28.50;58.10;;;;;;4984525;28;19921;-61
2022/05/06 14:01:36;;;;;;;;;;;27.20;59.60;;;;;;4982153;28;20077;-60
2022/05/06 14:04:03;;;;;;;;;;;26.40;60.90;;;;;;4987048;28;19997;-60
2022/05/06 14:06:29;;;;;;;;;;;25.80;60.60;;;;;;4986804;28;19921;-60
2022/05/06 14:08:55;;;;;;;;;;;25.60;61.20;;;;;;4987926;28;19913;-60
2022/05/06 14:11:20;;;;;;;;;;;23.10;67.10;;;;;;4987839;28;20293;-60
2022/05/06 14:13:46;;;;;;;;;;;23.40;66.40;;;;;;4988332;28;19910;-61
2022/05/06 14:16:11;;;;;;;;;;;23.90;65.90;;;;;;4986350;28;19913;-60
2022/05/06 14:18:37;;;;;;;;;;;23.60;66.80;;;;;;4985398;28;20334;-60
2022/05/06 14:21:02;;;;;;;;;;;23.40;67.90;;;;;;4986426;28;19949;-60
2022/05/06 14:23:28;;;;;;;;;;;23.70;66.70;;;;;;4986166;28;19945;-60
2022/05/06 14:25:54;;;;;;;;;;;23.90;65.50;;;;;;4986759;28;19910;-60
2022/05/06 14:28:20;;;;;;;;;;;23.30;66.80;;;;;;4986167;28;19909;-60
2022/05/06 14:30:46;;;;;;;;;;;23.20;67.80;;;;;;4984856;28;19913;-60
2022/05/06 14:33:11;;;;;;;;;;;22.90;67.40;;;;;;4984437;28;19926;-60
2022/05/06 14:35:37;;;;;;;;;;;22.40;69.20;;;;;;4986149;28;19909;-60
2022/05/06 14:38:03;;;;;;;;;;;22.10;71.60;;;;;;4983106;28;19928;-60
2022/05/06 14:40:29;;;;;;;;;;;23.00;68.70;;;;;;4985520;28;19913;-60
2022/05/06 14:42:55;;;;;;;;;;;23.10;68.10;;;;;;4985078;28;20335;-60
2022/05/06 14:45:21;;;;;;;;;;;23.70;67.40;;;;;;4983122;28;20335;-60
2022/05/06 14:47:47;;;;;;;;;;;24.70;66.10;;;;;;4984968;28;19910;-60
2022/05/06 14:50:12;;;;;;;;;;;24.30;65.00;;;;;;4986199;28;19913;-60
2022/05/06 14:52:38;;;;;;;;;;;24.30;66.00;;;;;;4988942;28;19909;-60
2022/05/06 14:55:04;;;;;;;;;;;23.50;67.30;;;;;;4984855;28;19933;-60
2022/05/06 14:57:33;;;;;;;;;;;25.50;64.30;;;;;;4985525;28;19944;-60
2022/05/06 14:59:59;;;;;;;;;;;25.40;63.70;;;;;;4984763;28;20400;-61
2022/05/06 15:02:24;;;;;;;;;;;25.00;64.00;;;;;;4984409;28;19953;-61
2022/05/06 15:04:50;;;;;;;;;;;24.60;64.30;;;;;;4985685;28;19910;-60